Flight Track Log - Related Links

Times and Time Zones

All times are in EDT time to prevent confusion due to time zone crossing. See the N92FC flight status page for this flight to view local times or setup timezone preferences in your user account.

Time Position Orientation Groundspeed Altitude Reporting Facility
EDT Latitude Longitude Course Direction KTS MPH feet Rate Location/Type
Mon 10:19:42 AM 42.6656 -83.4803 277° West 126 145 3,100  Level Cleveland Center
Mon 10:20:49 AM 42.6725 -83.5314 280° West 139 160 4,500 984 Climbing Cleveland Center
Mon 10:21:50 AM 42.7031 -83.4847 48° Northeast 219 252 5,200 732 Climbing Cleveland Center
Mon 10:22:52 AM 42.7094 -83.3947 84° East 230 265 6,000 1,161 Climbing Cleveland Center
Mon 10:23:23 AM 42.7122 -83.3581 84° East 232 267 7,000 1,714 Climbing Cleveland Center
Mon 10:24:23 AM 42.7200 -83.2933 81° East 200 230 8,600 1,500 Climbing Cleveland Center
Mon 10:25:23 AM 42.7111 -83.2336 101° East 170 196 10,000 1,400 Climbing Cleveland Center
Mon 10:26:23 AM 42.6631 -83.2403 186° South 126 145 11,400 1,400 Climbing Cleveland Center
Mon 10:27:23 AM 42.6192 -83.2439 183° South 138 159 12,800 1,250 Climbing Cleveland Center
Mon 10:28:23 AM 42.5772 -83.2478 184° South 152 175 13,900 1,150 Climbing Cleveland Center
Mon 10:29:23 AM 42.5292 -83.2542 186° South 163 188 15,100 1,100 Climbing Cleveland Center
Mon 10:30:23 AM 42.4792 -83.2606 185° South 168 193 16,100 1,050 Climbing Cleveland Center
Mon 10:31:23 AM 42.4311 -83.2614 181° South 178 205 17,200 900 Climbing Cleveland Center
Mon 10:32:23 AM 42.3831 -83.2706 188° South 185 213 17,900 400 Climbing Cleveland Center
Mon 10:33:23 AM 42.3286 -83.2767 185° South 185 213 18,000 50 Climbing Cleveland Center
Mon 10:34:23 AM 42.2681 -83.2825 184° South 208 239 18,000  Level Cleveland Center
Mon 10:35:23 AM 42.2011 -83.2908 185° South 231 266 18,000 350 Level Cleveland Center
Mon 10:36:23 AM 42.1383 -83.2939 182° South 236 272 18,700 650 Climbing Cleveland Center
Mon 10:37:23 AM 42.0819 -83.3025 186° South 224 258 19,300 650 Climbing Cleveland Center
Mon 10:38:23 AM 42.0256 -83.3086 185° South 217 250 20,000 650 Climbing Cleveland Center
Mon 10:39:23 AM 41.9775 -83.3122 183° South 217 250 20,600 550 Climbing Cleveland Center
Mon 10:40:23 AM 41.9233 -83.3125 180° South 206 237 21,100 550 Climbing Cleveland Center
Mon 10:41:23 AM 41.8697 -83.2908 163° South 201 231 21,700 450 Climbing Cleveland Center
Mon 10:42:23 AM 41.8117 -83.2717 166° South 201 231 22,000 150 Climbing Cleveland Center
Mon 10:43:23 AM 41.7517 -83.2553 168° South 207 238 22,000  Level Cleveland Center
Mon 10:44:23 AM 41.6917 -83.2361 167° South 222 255 22,000  Level Cleveland Center
Mon 10:45:23 AM 41.6253 -83.2167 168° South 227 261 22,000  Level Cleveland Center
Mon 10:46:23 AM 41.5633 -83.1975 167° South 237 273 22,000  Level Cleveland Center
Mon 10:47:23 AM 41.4928 -83.1753 167° South 237 273 22,000  Level Cleveland Center
Mon 10:48:23 AM 41.4286 -83.1558 167° South 242 278 22,000  Level Cleveland Center
Mon 10:49:23 AM 41.3644 -83.1369 168° South 242 278 22,000  Level Cleveland Center
Mon 10:50:23 AM 41.3003 -83.1150 166° South 242 278 22,000  Level Cleveland Center
Mon 10:51:23 AM 41.2361 -83.0958 167° South 242 278 22,000  Level Cleveland Center
Mon 10:52:23 AM 41.1739 -83.0769 167° South 242 278 22,000  Level Cleveland Center
Mon 10:53:23 AM 41.1097 -83.0581 167° South 235 270 22,000  Level Cleveland Center
Mon 10:54:23 AM 41.0456 -83.0389 167° South 240 276 22,000  Level Cleveland Center
Mon 10:55:23 AM 40.9814 -83.0200 167° South 240 276 22,000  Level Cleveland Center
Mon 10:56:23 AM 40.9169 -83.0011 168° South 240 276 22,000  Level Cleveland Center
Mon 10:57:33 AM 40.8531 -82.9808 167° South 237 273 22,000  Level Indianapolis Center
Mon 10:58:35 AM 40.7769 -82.9572 167° South 239 275 22,000  Level Indianapolis Center
Mon 10:59:36 AM 40.7131 -82.9394 168° South 235 270 22,000  Level Indianapolis Center
Mon 11:00:38 AM 40.6469 -82.9189 167° South 242 278 22,000  Level Indianapolis Center
Mon 11:01:40 AM 40.5836 -82.8997 167° South 234 269 22,000  Level Indianapolis Center
Mon 11:02:42 AM 40.5183 -82.8822 168° South 236 272 22,000  Level Indianapolis Center
Mon 11:03:44 AM 40.4542 -82.8644 168° South 236 272 22,000  Level Indianapolis Center
Mon 11:04:46 AM 40.3892 -82.8450 167° South 237 273 22,000 -48 Level Indianapolis Center
Mon 11:05:48 AM 40.3139 -82.8206 166° South 236 272 21,900  Descending Indianapolis Center
Mon 11:06:50 AM 40.2506 -82.8031 168° South 232 267 22,000  Climbing Indianapolis Center
Mon 11:07:52 AM 40.1839 -82.7844 168° South 239 275 21,900  Descending Indianapolis Center
Mon 11:08:54 AM 40.1197 -82.7650 167° South 234 269 22,000  Climbing Indianapolis Center
Mon 11:09:56 AM 40.0550 -82.7467 168° South 234 269 21,900 -48 Descending Indianapolis Center
Mon 11:10:58 AM 39.9906 -82.7289 168° South 233 268 21,900  Level Indianapolis Center
Mon 11:12:00 AM 39.9253 -82.7086 167° South 236 272 21,900  Level Indianapolis Center
Mon 11:13:02 AM 39.8606 -82.6903 168° South 236 272 21,900  Level Indianapolis Center
Mon 11:14:04 AM 39.7947 -82.6714 168° South 238 274 21,900  Level Indianapolis Center
Mon 11:15:06 AM 39.7192 -82.6497 168° South 234 269 21,900  Level Indianapolis Center
Mon 11:16:09 AM 39.6536 -82.6303 167° South 237 273 21,900  Level Indianapolis Center
Mon 11:17:11 AM 39.5883 -82.6125 168° South 237 273 21,900  Level Indianapolis Center
Mon 11:18:13 AM 39.5225 -82.5933 167° South 239 275 21,900  Level Indianapolis Center
Mon 11:19:14 AM 39.4586 -82.5753 168° South 235 270 21,900  Level Indianapolis Center
Mon 11:20:17 AM 39.3942 -82.5561 167° South 234 269 21,900  Level Indianapolis Center
Mon 11:21:19 AM 39.3300 -82.5389 168° South 233 268 21,900  Level Indianapolis Center
Mon 11:22:21 AM 39.2661 -82.5197 167° South 233 268 21,900  Level Indianapolis Center
Mon 11:23:23 AM 39.1906 -82.4981 167° South 237 273 21,900  Level Indianapolis Center
Mon 11:24:25 AM 39.1361 -82.4831 168° South 233 268 21,900  Level Indianapolis Center
Mon 11:25:27 AM 39.0583 -82.4614 168° South 238 274 21,900  Level Indianapolis Center
Mon 11:26:29 AM 38.9944 -82.4422 167° South 236 272 21,900  Level Indianapolis Center
Mon 11:27:31 AM 38.9306 -82.4244 168° South 234 269 21,900  Level Indianapolis Center
Mon 11:28:33 AM 38.8667 -82.4061 167° South 235 270 21,900  Level Indianapolis Center
Mon 11:29:35 AM 38.8019 -82.3883 168° South 236 272 21,900  Level Indianapolis Center
Mon 11:30:37 AM 38.7383 -82.3714 168° South 235 270 21,900  Level Indianapolis Center
Mon 11:31:39 AM 38.6628 -82.3500 168° South 232 267 21,900  Level Indianapolis Center
Mon 11:32:41 AM 38.6000 -82.3308 167° South 231 266 21,900  Level Indianapolis Center
Mon 11:33:43 AM 38.5364 -82.3150 169° South 232 267 21,900  Level Indianapolis Center
Mon 11:34:45 AM 38.4731 -82.2975 168° South 232 267 21,900  Level Indianapolis Center
Mon 11:35:47 AM 38.4092 -82.2786 167° South 235 270 21,900  Level Indianapolis Center
Mon 11:36:49 AM 38.3458 -82.2614 168° South 233 268 21,900  Level Indianapolis Center
Mon 11:37:51 AM 38.2700 -82.2403 168° South 233 268 21,900  Level Indianapolis Center
Mon 11:38:53 AM 38.2061 -82.2231 168° South 234 269 21,900  Level Indianapolis Center
Mon 11:39:55 AM 38.1442 -82.2064 168° South 230 265 21,900  Level Indianapolis Center
Mon 11:40:57 AM 38.0753 -82.1886 169° South 230 265 21,900  Level Indianapolis Center
Mon 11:41:59 AM 38.0117 -82.1706 167° South 232 267 21,900  Level Indianapolis Center
Mon 11:43:01 AM 37.9564 -82.1558 168° South 228 262 21,900  Level Indianapolis Center
Mon 11:44:03 AM 37.8794 -82.1344 168° South 233 268 21,900  Level Indianapolis Center
Mon 11:45:05 AM 37.8228 -82.1186 168° South 231 266 21,900  Level Indianapolis Center
Mon 11:46:07 AM 37.7506 -82.0992 168° South 227 261 21,900  Level Indianapolis Center
Mon 11:47:09 AM 37.6878 -82.0817 168° South 229 264 21,900  Level Indianapolis Center
Mon 11:48:11 AM 37.6256 -82.0661 169° South 228 262 21,900  Level Indianapolis Center
Mon 11:49:13 AM 37.5644 -82.0494 168° South 224 258 21,900  Level Indianapolis Center
Mon 11:50:15 AM 37.5019 -82.0322 168° South 228 262 21,900  Level Indianapolis Center
Mon 11:51:17 AM 37.4408 -82.0150 167° South 226 260 21,900  Level Indianapolis Center
Mon 11:52:19 AM 37.3683 -81.9967 169° South 226 260 21,900  Level Indianapolis Center
Mon 11:53:21 AM 37.3064 -81.9792 167° South 226 260 21,900  Level Indianapolis Center
Mon 11:54:23 AM 37.2447 -81.9628 168° South 225 259 21,900  Level Indianapolis Center
Mon 11:55:25 AM 37.1822 -81.9453 167° South 228 262 21,900  Level Indianapolis Center
Mon 11:56:27 AM 37.1214 -81.9292 168° South 224 258 21,900  Level Indianapolis Center
Mon 11:57:29 AM 37.0589 -81.9139 169° South 227 261 21,900  Level Indianapolis Center
Mon 11:58:31 AM 36.9867 -81.8928 167° South 227 261 21,900  Level Indianapolis Center
Mon 11:59:33 AM 36.9247 -81.8781 169° South 227 261 21,900  Level Indianapolis Center
Mon 12:00:35 PM 36.8625 -81.8608 168° South 227 261 21,900  Level Indianapolis Center
Mon 12:01:06 PM 36.8269 -81.8525 169° South 212 244 21,900  Level Atlanta Center
Mon 12:02:06 PM 36.7642 -81.8361 168° South 240 276 21,900  Level Atlanta Center
Mon 12:03:06 PM 36.7033 -81.8197 168° South 234 269 21,900  Level Atlanta Center
Mon 12:04:06 PM 36.6428 -81.8033 168° South 234 269 21,900  Level Atlanta Center
Mon 12:05:06 PM 36.5819 -81.7869 168° South 228 262 21,900  Level Atlanta Center
Mon 12:06:06 PM 36.5192 -81.7706 168° South 228 262 21,900  Level Atlanta Center
Mon 12:07:06 PM 36.4603 -81.7542 167° South 223 257 21,900  Level Atlanta Center
Mon 12:08:06 PM 36.4017 -81.7378 167° South 223 257 21,900  Level Atlanta Center
Mon 12:09:06 PM 36.3389 -81.7242 170° South 223 257 21,900  Level Atlanta Center
Mon 12:10:06 PM 36.2781 -81.7078 168° South 223 257 21,900  Level Atlanta Center
Mon 12:11:06 PM 36.2214 -81.6942 169° South 223 257 21,900  Level Atlanta Center
Mon 12:12:06 PM 36.1586 -81.6781 168° South 223 257 21,900  Level Atlanta Center
Mon 12:13:06 PM 36.1000 -81.6617 167° South 223 257 21,900  Level Atlanta Center
Mon 12:14:06 PM 36.0369 -81.6481 170° South 223 257 21,900  Level Atlanta Center
Mon 12:15:06 PM 35.9761 -81.6294 166° South 223 257 21,900  Level Atlanta Center
Mon 12:16:06 PM 35.9175 -81.6158 169° South 218 251 21,900  Level Atlanta Center
Mon 12:17:06 PM 35.8567 -81.5997 168° South 223 257 21,900  Level Atlanta Center
Mon 12:18:06 PM 35.7939 -81.5861 170° South 223 257 21,900  Level Atlanta Center
Mon 12:19:06 PM 35.7289 -81.5675 167° South 223 257 21,900  Level Atlanta Center
Mon 12:20:06 PM 35.6658 -81.5517 168° South 223 257 21,900  Level Atlanta Center
Mon 12:21:06 PM 35.6050 -81.5356 168° South 223 257 21,900  Level Atlanta Center
Mon 12:22:06 PM 35.5442 -81.5194 168° South 223 257 21,900  Level Atlanta Center
Mon 12:23:06 PM 35.4836 -81.5061 170° South 223 257 21,900  Level Atlanta Center
Mon 12:24:06 PM 35.4247 -81.4875 166° South 223 257 21,900  Level Atlanta Center
Mon 12:25:06 PM 35.3697 -81.4536 153° Southeast 223 257 21,900  Level Atlanta Center
Mon 12:26:06 PM 35.3128 -81.4197 154° Southeast 229 264 21,900  Level Atlanta Center
Mon 12:27:06 PM 35.2536 -81.3861 155° Southeast 234 269 21,900  Level Atlanta Center
Mon 12:28:06 PM 35.2008 -81.3547 154° Southeast 227 261 21,900  Level Atlanta Center
Mon 12:29:06 PM 35.1436 -81.3183 153° Southeast 227 261 21,900  Level Atlanta Center
Mon 12:30:06 PM 35.0864 -81.2847 154° Southeast 227 261 21,900  Level Atlanta Center
Mon 12:31:06 PM 35.0256 -81.2664 166° South 222 255 21,900  Level Atlanta Center
Mon 12:32:06 PM 34.9647 -81.2583 174° South 217 250 21,900  Level Atlanta Center
Mon 12:33:06 PM 34.9122 -81.2425 166° South 222 255 21,900  Level Atlanta Center
Mon 12:34:06 PM 34.8494 -81.2267 168° South 222 255 21,900  Level Atlanta Center
Mon 12:35:06 PM 34.7883 -81.2086 166° South 222 255 21,900  Level Atlanta Center
Mon 12:36:48 PM 34.6825 -81.1908 172° South 226 260 21,900  Level Jacksonville Center
Mon 12:37:48 PM 34.6175 -81.1769 170° South 231 266 21,900  Level Jacksonville Center
Mon 12:38:48 PM 34.5550 -81.1708 175° South 231 266 21,900  Level Jacksonville Center
Mon 12:39:48 PM 34.4942 -81.1594 171° South 236 272 21,900  Level Jacksonville Center
Mon 12:40:48 PM 34.4294 -81.1456 170° South 236 272 21,900  Level Jacksonville Center
Mon 12:41:48 PM 34.3647 -81.1417 177° South 236 272 21,900  Level Jacksonville Center
Mon 12:42:48 PM 34.2956 -81.1306 172° South 236 272 21,900  Level Jacksonville Center
Mon 12:43:48 PM 34.2433 -81.1242 174° South 224 258 21,900  Level Jacksonville Center
Mon 12:44:48 PM 34.1808 -81.1178 175° South 224 258 21,900  Level Jacksonville Center
Mon 12:45:48 PM 34.1139 -81.1117 176° South 229 264 21,900  Level Jacksonville Center
Mon 12:46:48 PM 34.0556 -81.1103 179° South 229 264 21,900  Level Jacksonville Center
Mon 12:47:48 PM 33.9906 -81.1042 176° South 229 264 21,900  Level Jacksonville Center
Mon 12:48:48 PM 33.9258 -81.1031 179° South 229 264 21,900  Level Jacksonville Center
Mon 12:49:48 PM 33.8611 -81.0994 177° South 235 270 21,900  Level Jacksonville Center
Mon 12:50:48 PM 33.8028 -81.0931 175° South 229 264 21,900  Level Jacksonville Center
Mon 12:51:48 PM 33.7317 -81.0794 171° South 229 264 21,900  Level Jacksonville Center
Mon 12:52:48 PM 33.6708 -81.0683 171° South 229 264 21,900 -450 Level Jacksonville Center
Mon 12:53:48 PM 33.6058 -81.0522 168° South 234 269 21,000 -800 Descending Jacksonville Center
Mon 12:54:48 PM 33.5367 -81.0311 166° South 245 282 20,300 -800 Descending Jacksonville Center
Mon 12:55:48 PM 33.4633 -81.0103 167° South 256 295 19,400 -800 Descending Jacksonville Center
Mon 12:56:48 PM 33.3942 -80.9919 168° South 256 295 18,700 -750 Descending Jacksonville Center
Mon 12:57:48 PM 33.3208 -80.9736 168° South 261 300 17,900 -800 Descending Jacksonville Center
Mon 12:58:48 PM 33.2475 -80.9553 168° South 261 300 17,100 -900 Descending Jacksonville Center
Mon 12:59:48 PM 33.1764 -80.9344 166° South 261 300 16,100 -1,050 Descending Jacksonville Center
Mon 01:00:48 PM 33.1050 -80.9111 165° South 261 300 15,000 -1,250 Descending Jacksonville Center
Mon 01:01:48 PM 33.0336 -80.8906 166° South 261 300 13,600 -1,250 Descending Jacksonville Center
Mon 01:02:48 PM 32.9625 -80.8722 168° South 261 300 12,500 -1,200 Descending Jacksonville Center
Mon 01:03:48 PM 32.8953 -80.8542 167° South 261 300 11,200 -1,450 Descending Jacksonville Center
Mon 01:04:48 PM 32.8261 -80.8383 169° South 261 300 9,600 -1,500 Descending Jacksonville Center
Mon 01:05:48 PM 32.7633 -80.8150 163° South 254 292 8,200 -1,200 Descending Jacksonville Center
Mon 01:06:48 PM 32.7250 -80.7689 135° Southeast 218 251 7,200 -1,150 Descending Jacksonville Center
Mon 01:07:48 PM 32.6864 -80.7206 133° Southeast 206 237 5,900 -1,200 Descending Jacksonville Center
Mon 01:08:48 PM 32.6442 -80.6919 150° Southeast 188 216 4,800 -1,050 Descending Jacksonville Center
Mon 01:09:48 PM 32.5900 -80.6981 185° South 182 209 3,800 -1,000 Descending Jacksonville Center
Mon 01:11:00 PM 32.5197 -80.7182 194° South  Level FlightAware Approximate
Mon 01:18:00 PM 32.2244 -80.6975 North  Level Estimated
Mon 01:19:00 PM 32.2244 -80.6975 North  Level Estimated
Mon 01:20:00 PM 32.2244 -80.6975 North  Level Estimated
Mon 01:21:00 PM 32.2244 -80.6975 North  Level Estimated
Mon 01:22:00 PM 32.2244 -80.6975 North  Level Estimated
Mon 01:23:00 PM 32.2244 -80.6975 North  Level Estimated
Mon 01:24:00 PM 32.2244 -80.6975 North  Level Estimated

Login

Don't have an account? Register now (free) for customized features, flight alerts, and more!